« Back
NWS Peachtree City, Ga » Text Product » ATL Terminal Aerodrome Forecast


Printer-friendly Version
Current Version              Previous Versions:   1  2  3  4  5  6  7  8  9  

Terminal Aerodrome Forecast

586
FTUS42 KFFC 271900 AAA
TAFATL
TAF AMD
KATL 271948Z 2720/2824 27010G22KT P6SM SCT045
     FM280200 25008KT P6SM SCT100
     FM281100 26010KT P6SM VCSH SCT040 BKN100
     FM281500 29010G17KT P6SM VCSH BKN040
     FM281900 31010G17KT P6SM SCT040=

USA.gov is the U.S. government's official web portal to all federal, state and local government web resources and services.